Estación de Los Angeles

Ultimos registro cada 15 minutos 21
Estación Fecha / Hora Temperatura Humedad Lluvia Velocidad Dirección Radiación Presion
21 Los Angeles 10-05-2026 05:00 10,7 56 0 2,3 124 0,6 1007,6
20 Los Angeles 10-05-2026 04:45 10,7 56 0 2,7 126 0,6 1007,6
19 Los Angeles 10-05-2026 04:30 10,7 56 0 3 132 0,6 1007,6
18 Los Angeles 10-05-2026 04:15 10,5 57,8 0 2,7 133 0,6 1007,7
17 Los Angeles 10-05-2026 04:00 10,3 59 0 2,3 132 0,6 1007,8
16 Los Angeles 10-05-2026 03:45 10,3 59,2 0 2,3 135 0,6 1008,1
15 Los Angeles 10-05-2026 03:30 10,3 60 0 2,3 132 0,6 1008,3
14 Los Angeles 10-05-2026 03:15 10,4 60 0 2,3 135 0,6 1008,5
13 Los Angeles 10-05-2026 03:00 10,4 60,3 0 2,7 131 0,6 1008,7
12 Los Angeles 10-05-2026 02:45 10,7 59,5 0 2,3 128 0,6 1008,6
11 Los Angeles 10-05-2026 02:30 10,9 58,8 0 3 121 0,6 1008,8
10 Los Angeles 10-05-2026 02:15 11,2 57,1 0 2,7 131 0,6 1008,8
9 Los Angeles 10-05-2026 02:00 11,4 55,6 0 2,3 129 0,6 1008,8
8 Los Angeles 10-05-2026 01:45 11,7 54 0 2,7 129 0,6 1008,9
7 Los Angeles 10-05-2026 01:30 11,7 53,6 0 2,7 129 0,6 1008,9
6 Los Angeles 10-05-2026 01:15 11,6 54,4 0 2,7 119 0,6 1008,9
5 Los Angeles 10-05-2026 01:00 11,6 54,6 0 2,3 133 0,6 1009
4 Los Angeles 10-05-2026 00:45 11,8 53,6 0 2,7 136 0,6 1009,1
3 Los Angeles 10-05-2026 00:30 11,8 53,5 0 2,7 140 0,6 1009,3
2 Los Angeles 10-05-2026 00:15 12 53 0 3 136 0,6 1009,4
1 Los Angeles 10-05-2026 00:00 12,2 52 0 3,3 143 0,6 1009,4